createdAt,value
2018-04-13T00:00:06.534Z,95847.26
2018-04-13T00:02:34.054Z,95845.37
2018-04-13T00:05:01.591Z,95852.45
2018-04-13T00:07:29.123Z,95855.80
2018-04-13T00:09:56.639Z,95860.47
2018-04-13T00:12:24.191Z,95855.83
2018-04-13T00:14:51.695Z,95853.95
2018-04-13T00:17:19.716Z,95847.01
2018-04-13T00:19:47.255Z,95856.75
2018-04-13T00:22:14.770Z,95841.09
2018-04-13T00:24:42.279Z,95848.63
2018-04-13T00:27:09.924Z,95854.24
2018-04-13T00:29:37.435Z,95851.58
2018-04-13T00:32:04.944Z,95849.21
2018-04-13T00:34:32.494Z,95849.41
2018-04-13T00:37:00.010Z,95848.56
2018-04-13T00:39:27.519Z,95859.98
2018-04-13T00:41:55.360Z,95863.64
2018-04-13T00:44:22.884Z,95863.11
2018-04-13T00:46:50.400Z,95855.41
2018-04-13T00:49:18.521Z,95859.66
2018-04-13T00:51:46.113Z,95860.84
2018-04-13T00:54:14.516Z,95857.88
2018-04-13T00:56:43.330Z,95862.87
2018-04-13T00:59:10.839Z,95858.05
2018-04-13T01:01:38.351Z,95857.97
2018-04-13T01:04:06.047Z,95854.48
2018-04-13T01:06:33.559Z,95851.97
2018-04-13T01:09:02.045Z,95853.76
2018-04-13T01:11:29.595Z,95851.41
2018-04-13T01:13:57.104Z,95854.90
2018-04-13T01:16:24.610Z,95857.06
2018-04-13T01:18:53.085Z,95857.84
2018-04-13T01:21:20.601Z,95860.55
2018-04-13T01:23:48.636Z,95854.25
2018-04-13T01:26:16.363Z,95853.29
2018-04-13T01:28:43.880Z,95855.49
2018-04-13T01:31:11.384Z,95849.20
2018-04-13T01:33:39.143Z,95842.91
2018-04-13T01:36:07.143Z,95844.09
2018-04-13T01:38:35.523Z,95842.50
2018-04-13T01:41:03.461Z,95838.88
2018-04-13T01:43:31.452Z,95833.93
2018-04-13T01:45:58.960Z,95831.51
2018-04-13T01:48:26.655Z,95835.83
2018-04-13T01:50:54.182Z,95835.41
2018-04-13T01:53:22.618Z,95839.77
2018-04-13T01:55:50.155Z,95839.66
2018-04-13T01:58:17.672Z,95845.12
2018-04-13T02:00:45.178Z,95855.23
2018-04-13T02:03:12.828Z,95849.94
2018-04-13T02:05:40.349Z,95847.34
2018-04-13T02:08:07.856Z,95848.75
2018-04-13T02:10:35.603Z,95850.36
2018-04-13T02:13:03.121Z,95853.89
2018-04-13T02:15:30.855Z,95848.86
2018-04-13T02:17:58.953Z,95852.18
2018-04-13T02:20:26.612Z,95855.72
2018-04-13T02:22:54.129Z,95854.05
2018-04-13T02:25:21.987Z,95845.10
2018-04-13T02:27:49.495Z,95837.23
2018-04-13T02:30:17.008Z,95840.48
2018-04-13T02:32:44.970Z,95843.52
2018-04-13T02:35:12.475Z,95842.16
2018-04-13T02:37:39.984Z,95852.13
2018-04-13T02:40:07.743Z,95860.38
2018-04-13T02:42:35.253Z,95865.65
2018-04-13T02:45:02.770Z,95866.09
2018-04-13T02:47:30.427Z,95871.34
2018-04-13T02:49:57.939Z,95877.38
2018-04-13T02:52:25.455Z,95876.73
2018-04-13T02:54:53.011Z,95883.28
2018-04-13T02:57:20.536Z,95885.35
2018-04-13T02:59:48.052Z,95884.26
2018-04-13T03:02:15.786Z,95886.61
2018-04-13T03:04:43.307Z,95888.20
2018-04-13T03:07:10.847Z,95887.33
2018-04-13T03:09:38.391Z,95881.45
2018-04-13T03:12:05.917Z,95891.34
2018-04-13T03:14:33.429Z,95885.37
2018-04-13T03:17:00.971Z,95887.13
2018-04-13T03:19:28.477Z,95892.79
2018-04-13T03:21:56.015Z,95891.70
2018-04-13T03:24:23.720Z,95894.27
2018-04-13T03:26:51.229Z,95890.58
2018-04-13T03:29:18.743Z,95895.13
2018-04-13T03:31:46.280Z,95900.16
2018-04-13T03:34:13.797Z,95897.83
2018-04-13T03:36:41.303Z,95898.09
2018-04-13T03:39:09.075Z,95901.30
2018-04-13T03:41:36.585Z,95905.06
2018-04-13T03:44:04.104Z,95907.27
2018-04-13T03:46:31.960Z,95908.77
2018-04-13T03:48:59.474Z,95906.27
2018-04-13T03:51:26.981Z,95905.23
2018-04-13T03:53:54.519Z,95903.00
2018-04-13T03:56:22.032Z,95909.97
2018-04-13T03:58:49.545Z,95914.13
2018-04-13T04:01:17.409Z,95914.45
2018-04-13T04:03:44.923Z,95921.11
2018-04-13T04:06:12.435Z,95920.81
2018-04-13T04:08:39.991Z,95922.64
2018-04-13T04:11:07.520Z,95931.70
2018-04-13T04:13:35.040Z,95928.02
2018-04-13T04:16:02.683Z,95934.77
2018-04-13T04:18:30.195Z,95933.41
2018-04-13T04:21:09.977Z,95947.02
2018-04-13T04:23:49.284Z,95949.41
2018-04-13T04:26:28.948Z,95946.95
2018-04-13T04:28:56.485Z,95952.26
2018-04-13T04:31:24.001Z,95955.23
2018-04-13T04:33:51.736Z,95952.70
2018-04-13T04:36:19.273Z,95962.07
2018-04-13T04:38:46.819Z,95961.50
2018-04-13T04:41:14.366Z,95972.52
2018-04-13T04:43:42.847Z,95972.08
2018-04-13T04:46:10.365Z,95980.03
2018-04-13T04:48:38.138Z,95978.87
2018-04-13T04:51:05.697Z,95984.58
2018-04-13T04:53:33.216Z,95988.39
2018-04-13T04:56:00.920Z,95987.22
2018-04-13T04:58:28.506Z,95991.25
2018-04-13T05:00:56.014Z,95987.45
2018-04-13T05:03:23.778Z,95992.73
2018-04-13T05:05:51.304Z,95992.67
2018-04-13T05:08:18.834Z,95994.05
2018-04-13T05:10:46.391Z,95997.63
2018-04-13T05:13:13.905Z,95995.15
2018-04-13T05:15:41.423Z,96003.91
2018-04-13T05:18:08.976Z,96010.62
2018-04-13T05:20:36.487Z,96005.73
2018-04-13T05:23:04.009Z,96004.77
2018-04-13T05:25:31.919Z,96012.16
2018-04-13T05:27:59.431Z,96017.33
2018-04-13T05:30:27.081Z,96022.33
2018-04-13T05:32:54.631Z,96024.80
2018-04-13T05:35:23.092Z,96026.38
2018-04-13T05:37:50.612Z,96032.04
2018-04-13T05:40:18.159Z,96026.78
2018-04-13T05:42:45.669Z,96024.94
2018-04-13T05:45:13.191Z,96020.95
2018-04-13T05:47:40.737Z,96028.23
2018-04-13T05:50:08.251Z,96028.19
2018-04-13T05:52:35.759Z,96029.53
2018-04-13T05:55:03.552Z,96029.47
2018-04-13T05:57:31.065Z,96029.75
2018-04-13T05:59:58.589Z,96032.91
2018-04-13T06:02:26.324Z,96028.65
2018-04-13T06:04:53.836Z,96029.58
2018-04-13T06:07:21.339Z,96024.08
2018-04-13T06:09:49.016Z,96022.23
2018-04-13T06:12:16.954Z,96019.59
2018-04-13T06:14:44.668Z,96021.81
2018-04-13T06:17:12.268Z,96020.09
2018-04-13T06:19:39.800Z,96014.91
2018-04-13T06:22:08.265Z,96009.20
2018-04-13T06:24:37.531Z,96000.84
2018-04-13T06:27:05.049Z,96006.28
2018-04-13T06:29:32.645Z,96014.80
2018-04-13T06:32:00.420Z,96014.31
2018-04-13T06:34:27.935Z,96028.93
2018-04-13T06:36:55.529Z,96026.14
2018-04-13T06:39:23.139Z,96028.02
2018-04-13T06:41:50.655Z,96031.95
2018-04-13T06:44:18.231Z,96038.91
2018-04-13T06:46:45.983Z,96045.05
2018-04-13T06:49:13.600Z,96048.77
2018-04-13T06:51:41.107Z,96050.84
2018-04-13T06:54:08.667Z,96057.94
2018-04-13T06:56:36.211Z,96067.91
2018-04-13T06:59:03.735Z,96066.92
2018-04-13T07:01:31.301Z,96076.02
2018-04-13T07:03:58.924Z,96078.05
2018-04-13T07:06:26.479Z,96085.41
2018-04-13T07:08:54.323Z,96090.14
2018-04-13T07:11:23.957Z,96090.69
2018-04-13T07:13:51.460Z,96097.36
2018-04-13T07:16:21.772Z,96102.23
2018-04-13T07:18:49.298Z,96105.47
2018-04-13T07:21:17.062Z,96108.74
2018-04-13T07:23:44.896Z,96110.03
2018-04-13T07:26:12.452Z,96118.21
2018-04-13T07:28:41.906Z,96120.44
2018-04-13T07:31:09.532Z,96124.09
2018-04-13T07:33:37.047Z,96129.99
2018-04-13T07:36:04.562Z,96132.84
2018-04-13T07:38:32.475Z,96136.93
2018-04-13T07:41:00.101Z,96145.88
2018-04-13T07:43:29.695Z,96147.79
2018-04-13T07:45:57.983Z,96154.72
2018-04-13T07:48:26.335Z,96158.91
2018-04-13T07:50:54.329Z,96162.56
2018-04-13T07:53:22.196Z,96161.73
2018-04-13T07:55:49.707Z,96172.85
2018-04-13T07:58:18.175Z,96163.84
2018-04-13T08:00:46.318Z,96168.14
2018-04-13T08:03:13.435Z,96165.45
2018-04-13T08:05:41.811Z,96181.89
2018-04-13T08:08:09.704Z,96178.88
2018-04-13T08:10:37.342Z,96185.36
2018-04-13T08:13:04.817Z,96181.98
2018-04-13T08:15:32.424Z,96185.13
2018-04-13T08:18:00.933Z,96199.59
2018-04-13T08:20:28.568Z,96206.03
2018-04-13T08:22:56.288Z,96211.21
2018-04-13T08:25:23.811Z,96208.57
2018-04-13T08:27:51.318Z,96204.73
2018-04-13T08:30:20.364Z,96210.16
2018-04-13T08:32:48.773Z,96206.20
2018-04-13T08:35:16.291Z,96207.00
2018-04-13T08:37:44.101Z,96210.44
2018-04-13T08:40:11.627Z,96211.88
2018-04-13T08:42:39.203Z,96212.06
2018-04-13T08:45:06.748Z,96221.84
2018-04-13T08:47:34.259Z,96228.08
2018-04-13T08:50:01.761Z,96225.73
2018-04-13T08:52:29.528Z,96231.48
2018-04-13T08:54:57.040Z,96238.75
2018-04-13T08:57:24.558Z,96249.70
2018-04-13T08:59:52.096Z,96257.24
2018-04-13T09:02:19.604Z,96261.27
2018-04-13T09:04:47.103Z,96271.53
2018-04-13T09:07:14.727Z,96276.02
2018-04-13T09:09:42.260Z,96285.22
2018-04-13T09:12:09.770Z,96289.80
2018-04-13T09:14:41.039Z,96298.74
2018-04-13T09:17:08.541Z,96305.41
2018-04-13T09:19:36.045Z,96312.78
2018-04-13T09:22:03.771Z,96316.05
2018-04-13T09:24:31.272Z,96320.37
2018-04-13T09:26:58.775Z,96330.87
2018-04-13T09:29:26.307Z,96338.30
2018-04-13T09:31:53.817Z,96353.34
2018-04-13T09:34:21.344Z,96362.81
2018-04-13T09:36:49.929Z,96368.06
2018-04-13T09:39:17.436Z,96386.85
2018-04-13T09:41:44.947Z,96393.45
2018-04-13T09:44:12.570Z,96397.27
2018-04-13T09:46:40.096Z,96406.77
2018-04-13T09:49:07.599Z,96413.15
2018-04-13T09:51:35.155Z,96423.56
2018-04-13T09:54:02.663Z,96433.61
2018-04-13T09:56:30.171Z,96445.72
2018-04-13T09:58:57.794Z,96457.07
2018-04-13T10:01:25.298Z,96462.47
2018-04-13T10:04:09.026Z,96472.63
2018-04-13T10:06:36.523Z,96479.22
2018-04-13T10:09:04.030Z,96485.33
2018-04-13T10:11:31.908Z,96495.66
2018-04-13T10:13:59.449Z,96484.69
2018-04-13T10:16:26.971Z,96509.48
2018-04-13T10:18:54.723Z,96508.16
2018-04-13T10:21:22.242Z,96511.94
2018-04-13T10:23:49.747Z,96518.55
2018-04-13T10:26:21.052Z,96522.66
2018-04-13T10:28:48.718Z,96522.14
2018-04-13T10:31:16.232Z,96529.41
2018-04-13T10:33:43.811Z,96531.67
2018-04-13T10:36:11.345Z,96540.75
2018-04-13T10:38:38.885Z,96544.90
2018-04-13T10:41:06.721Z,96548.20
2018-04-13T10:43:34.231Z,96551.73
2018-04-13T10:46:01.742Z,96554.70
2018-04-13T10:48:29.300Z,96564.52
2018-04-13T10:50:57.700Z,96562.35
2018-04-13T10:53:25.669Z,96573.95
2018-04-13T10:55:53.332Z,96579.62
2018-04-13T10:58:20.854Z,96580.73
2018-04-13T11:00:48.402Z,96586.44
2018-04-13T11:03:16.216Z,96593.61
2018-04-13T11:05:43.815Z,96600.45
2018-04-13T11:08:11.536Z,96606.73
2018-04-13T11:10:39.711Z,96611.52
2018-04-13T11:13:07.243Z,96615.74
2018-04-13T11:15:35.137Z,96624.57
2018-04-13T11:18:03.412Z,96627.31
2018-04-13T11:20:31.278Z,96631.10
2018-04-13T11:22:58.847Z,96640.20
2018-04-13T11:25:26.986Z,96651.69
2018-04-13T11:27:54.673Z,96655.94
2018-04-13T11:30:22.442Z,96657.59
2018-04-13T11:32:50.408Z,96664.61
2018-04-13T11:35:18.273Z,96674.52
2018-04-13T11:37:46.245Z,96670.83
2018-04-13T11:40:14.006Z,96678.62
2018-04-13T11:42:41.867Z,96676.05
2018-04-13T11:45:09.419Z,96685.98
2018-04-13T11:47:37.483Z,96678.17
2018-04-13T11:50:05.055Z,96696.30
2018-04-13T11:52:32.724Z,96693.61
2018-04-13T11:55:01.002Z,96712.28
2018-04-13T11:57:28.985Z,96711.12
2018-04-13T11:59:56.725Z,96713.50
2018-04-13T12:02:24.311Z,96721.80
2018-04-13T12:04:52.032Z,96719.91
2018-04-13T12:07:19.572Z,96724.99
2018-04-13T12:09:47.463Z,96732.45
2018-04-13T12:12:14.992Z,96729.78
2018-04-13T12:14:42.528Z,96740.75
2018-04-13T12:17:10.322Z,96748.00
2018-04-13T12:19:37.977Z,96745.72
2018-04-13T12:22:05.487Z,96751.37
2018-04-13T12:24:33.244Z,96760.00
2018-04-13T12:27:00.760Z,96765.46
2018-04-13T12:29:28.279Z,96771.83
2018-04-13T12:31:56.030Z,96778.06
2018-04-13T12:34:23.712Z,96775.28
2018-04-13T12:36:51.353Z,96787.48
2018-04-13T12:39:18.907Z,96788.64
2018-04-13T12:41:47.393Z,96791.36
2018-04-13T12:44:14.919Z,96802.63
2018-04-13T12:46:42.686Z,96805.77
2018-04-13T12:49:10.244Z,96810.44
2018-04-13T12:51:38.040Z,96817.00
2018-04-13T12:54:05.696Z,96811.26
2018-04-13T12:56:33.204Z,96818.73
2018-04-13T12:59:00.727Z,96824.25
2018-04-13T13:01:28.739Z,96819.23
2018-04-13T13:03:56.423Z,96817.27
2018-04-13T13:06:24.091Z,96796.45
2018-04-13T13:08:51.790Z,96802.69
2018-04-13T13:11:19.540Z,96820.75
2018-04-13T13:13:47.409Z,96828.59
2018-04-13T13:16:15.269Z,96835.95
2018-04-13T13:18:43.345Z,96850.52
2018-04-13T13:21:11.210Z,96857.88
2018-04-13T13:23:39.006Z,96865.45
2018-04-13T13:26:06.842Z,96858.20
2018-04-13T13:28:34.667Z,96870.53
2018-04-13T13:31:02.678Z,96883.30
2018-04-13T13:33:30.788Z,96884.67
2018-04-13T13:35:58.523Z,96890.66
2018-04-13T13:38:26.558Z,96897.09
2018-04-13T13:40:54.335Z,96902.77
2018-04-13T13:43:22.216Z,96903.59
2018-04-13T13:45:49.855Z,96911.84
2018-04-13T13:48:17.535Z,96919.97
2018-04-13T13:50:45.279Z,96925.41
2018-04-13T13:53:13.475Z,96927.70
2018-04-13T13:55:41.342Z,96928.09
2018-04-13T13:58:09.168Z,96925.66
2018-04-13T14:00:37.177Z,96937.53
2018-04-13T14:03:05.001Z,96937.28
2018-04-13T14:05:33.295Z,96940.07
2018-04-13T14:08:01.161Z,96944.06
2018-04-13T14:10:29.052Z,96944.78
2018-04-13T14:12:56.770Z,96952.53
2018-04-13T14:15:24.786Z,96946.83
2018-04-13T14:17:52.970Z,96950.50
2018-04-13T14:20:20.735Z,96951.14
2018-04-13T14:22:48.693Z,96956.86
2018-04-13T14:25:16.264Z,96960.89
2018-04-13T14:27:44.121Z,96954.22
2018-04-13T14:30:12.193Z,96958.26
2018-04-13T14:32:39.739Z,96967.73
2018-04-13T14:35:07.621Z,96968.48
2018-04-13T14:37:36.097Z,96979.06
2018-04-13T14:40:04.580Z,96974.85
2018-04-13T14:42:32.303Z,96967.02
2018-04-13T14:45:00.215Z,96968.02
2018-04-13T14:47:27.835Z,96965.14
2018-04-13T14:49:55.533Z,96977.64
2018-04-13T14:52:23.603Z,96969.77
2018-04-13T14:54:51.663Z,96975.77
2018-04-13T14:57:20.464Z,96975.61
2018-04-13T14:59:48.614Z,96972.79
2018-04-13T15:02:16.503Z,96972.29
2018-04-13T15:04:44.450Z,96972.83
2018-04-13T15:07:13.218Z,96979.97
2018-04-13T15:09:41.085Z,96972.09
2018-04-13T15:12:09.051Z,96977.89
2018-04-13T15:14:37.172Z,96991.93
2018-04-13T15:17:05.037Z,96993.80
2018-04-13T15:19:33.007Z,96989.69
2018-04-13T15:22:01.588Z,96987.75
2018-04-13T15:24:29.485Z,96993.47
2018-04-13T15:26:57.829Z,96995.44
2018-04-13T15:29:25.902Z,96992.25
2018-04-13T15:31:53.963Z,97000.39
2018-04-13T15:34:23.529Z,96987.61
2018-04-13T15:36:51.857Z,96983.23
2018-04-13T15:39:20.236Z,96987.95
2018-04-13T15:41:47.890Z,96983.23
2018-04-13T15:44:15.766Z,96986.14
2018-04-13T15:46:43.533Z,96987.70
2018-04-13T15:49:11.294Z,96985.75
2018-04-13T15:51:39.160Z,96984.18
2018-04-13T15:54:06.854Z,96983.95
2018-04-13T15:56:34.895Z,96976.97
2018-04-13T15:59:02.985Z,96969.97
2018-04-13T16:01:30.830Z,96972.48
2018-04-13T16:03:58.698Z,96968.73
2018-04-13T16:06:26.667Z,96967.83
2018-04-13T16:08:54.533Z,96964.89
2018-04-13T16:11:22.401Z,96958.55
2018-04-13T16:13:50.470Z,96966.59
2018-04-13T16:16:18.338Z,96966.39
2018-04-13T16:18:46.165Z,96967.48
2018-04-13T16:21:14.332Z,96965.98
2018-04-13T16:23:42.097Z,96971.91
2018-04-13T16:26:09.964Z,96966.17
2018-04-13T16:28:37.587Z,96970.94
2018-04-13T16:31:05.316Z,96979.12
2018-04-13T16:33:33.087Z,96975.78
2018-04-13T16:36:01.271Z,96982.96
2018-04-13T16:38:29.033Z,96977.47
2018-04-13T16:40:56.906Z,96980.78
2018-04-13T16:43:25.074Z,96984.31
2018-04-13T16:45:52.945Z,96986.41
2018-04-13T16:48:20.601Z,96984.66
2018-04-13T16:50:48.776Z,96989.02
2018-04-13T16:53:16.746Z,96987.33
2018-04-13T16:55:44.614Z,96998.81
2018-04-13T16:58:12.892Z,96996.00
2018-04-13T17:00:40.650Z,96997.23
2018-04-13T17:03:08.293Z,96998.70
2018-04-13T17:05:36.778Z,96993.60
2018-04-13T17:08:04.763Z,96997.91
2018-04-13T17:10:32.424Z,96998.98
2018-04-13T17:13:01.520Z,97003.77
2018-04-13T17:15:29.351Z,97004.33
2018-04-13T17:17:57.117Z,97007.33
2018-04-13T17:20:25.099Z,97011.88
2018-04-13T17:22:53.603Z,97008.59
2018-04-13T17:25:21.466Z,97007.54
2018-04-13T17:27:49.844Z,97014.63
2018-04-13T17:30:17.710Z,97017.39
2018-04-13T17:32:45.477Z,97022.02
2018-04-13T17:35:13.356Z,97030.13
2018-04-13T17:37:41.212Z,97043.27
2018-04-13T17:40:09.470Z,97047.55
2018-04-13T17:42:37.658Z,97050.65
2018-04-13T17:45:05.525Z,97050.82
2018-04-13T17:47:33.390Z,97048.30
2018-04-13T17:50:01.360Z,97054.02
2018-04-13T17:52:29.226Z,97056.25
2018-04-13T17:54:57.928Z,97063.02
2018-04-13T17:57:26.310Z,97061.56
2018-04-13T17:59:54.157Z,97065.97
2018-04-13T18:02:22.025Z,97073.34
2018-04-13T18:04:49.788Z,97072.58
2018-04-13T18:07:17.655Z,97072.84
2018-04-13T18:09:45.522Z,97075.22
2018-04-13T18:12:14.617Z,97081.33
2018-04-13T18:14:42.996Z,97078.98
2018-04-13T18:17:10.662Z,97093.75
2018-04-13T18:19:38.934Z,97099.14
2018-04-13T18:22:06.903Z,97095.13
2018-04-13T18:24:34.726Z,97104.48
2018-04-13T18:27:02.921Z,97109.75
2018-04-13T18:29:30.810Z,97107.61
2018-04-13T18:31:58.576Z,97115.70
2018-04-13T18:34:27.567Z,97115.30
2018-04-13T18:36:55.441Z,97116.14
2018-04-13T18:39:23.350Z,97120.16
2018-04-13T18:41:51.577Z,97129.47
2018-04-13T18:44:19.443Z,97132.03
2018-04-13T18:46:47.317Z,97140.33
2018-04-13T18:49:15.795Z,97138.99
2018-04-13T18:51:43.596Z,97147.67
2018-04-13T18:54:11.383Z,97143.90
2018-04-13T18:56:39.392Z,97155.31
2018-04-13T18:59:07.260Z,97144.95
2018-04-13T19:01:35.132Z,97149.52
2018-04-13T19:04:03.049Z,97145.92
2018-04-13T19:06:31.064Z,97151.25
2018-04-13T19:08:58.931Z,97161.80
2018-04-13T19:11:27.408Z,97150.56
2018-04-13T19:13:55.278Z,97154.70
2018-04-13T19:16:23.246Z,97161.92
2018-04-13T19:18:51.348Z,97163.17
2018-04-13T19:21:19.489Z,97167.73
2018-04-13T19:23:48.287Z,97177.37
2018-04-13T19:26:16.258Z,97176.67
2018-04-13T19:28:44.118Z,97193.20
2018-04-13T19:31:12.700Z,97190.55
2018-04-13T19:33:40.504Z,97187.03
2018-04-13T19:36:08.329Z,97190.63
2018-04-13T19:38:36.588Z,97193.97
2018-04-13T19:41:04.882Z,97188.27
2018-04-13T19:43:32.668Z,97195.55
2018-04-13T19:46:00.512Z,97200.16
2018-04-13T19:48:29.503Z,97198.85
2018-04-13T19:50:58.503Z,97200.62
2018-04-13T19:53:26.978Z,97208.56
2018-04-13T19:55:55.228Z,97204.84
2018-04-13T19:58:23.385Z,97205.22
2018-04-13T20:00:51.261Z,97202.95
2018-04-13T20:03:19.428Z,97195.27
2018-04-13T20:05:47.437Z,97196.59
2018-04-13T20:08:15.817Z,97204.16
2018-04-13T20:10:43.889Z,97205.09
2018-04-13T20:13:11.725Z,97212.48
2018-04-13T20:15:39.991Z,97219.08
2018-04-13T20:18:08.107Z,97217.27
2018-04-13T20:20:37.201Z,97216.95
2018-04-13T20:23:05.726Z,97222.62
2018-04-13T20:25:34.857Z,97221.05
2018-04-13T20:28:05.774Z,97222.51
2018-04-13T20:30:34.297Z,97221.67
2018-04-13T20:33:03.090Z,97219.36
2018-04-13T20:35:31.952Z,97223.29
2018-04-13T20:37:59.840Z,97219.30
2018-04-13T20:40:27.759Z,97217.39
2018-04-13T20:42:55.778Z,97217.59
2018-04-13T20:45:24.129Z,97214.56
2018-04-13T20:47:52.339Z,97214.34
2018-04-13T20:50:20.921Z,97216.91
2018-04-13T20:52:52.556Z,97222.84
2018-04-13T20:55:20.953Z,97220.41
2018-04-13T20:57:51.067Z,97225.19
2018-04-13T21:00:19.447Z,97227.13
2018-04-13T21:02:48.099Z,97223.56
2018-04-13T21:05:16.074Z,97224.49
2018-04-13T21:07:43.852Z,97223.50
2018-04-13T21:10:11.731Z,97229.90
2018-04-13T21:12:39.508Z,97230.56
2018-04-13T21:15:07.059Z,97228.84
2018-04-13T21:17:34.817Z,97232.52
2018-04-13T21:20:02.479Z,97240.72
2018-04-13T21:22:30.232Z,97239.64
2018-04-13T21:24:57.991Z,97239.94
2018-04-13T21:27:25.726Z,97234.42
2018-04-13T21:29:53.265Z,97240.20
2018-04-13T21:32:21.092Z,97242.86
2018-04-13T21:34:48.655Z,97241.34
2018-04-13T21:37:16.216Z,97246.53
2018-04-13T21:39:43.980Z,97253.63
2018-04-13T21:42:12.256Z,97249.72
2018-04-13T21:44:40.122Z,97253.27
2018-04-13T21:47:09.886Z,97251.78
2018-04-13T21:49:37.496Z,97256.98
2018-04-13T21:52:05.245Z,97251.14
2018-04-13T21:54:33.310Z,97265.42
2018-04-13T21:57:01.093Z,97258.74
2018-04-13T21:59:28.663Z,97264.43
2018-04-13T22:01:56.251Z,97262.94
2018-04-13T22:04:24.077Z,97267.41
2018-04-13T22:06:51.797Z,97269.06
2018-04-13T22:09:19.590Z,97273.32
2018-04-13T22:11:47.252Z,97272.41
2018-04-13T22:14:26.677Z,97278.19
2018-04-13T22:16:54.367Z,97276.36
2018-04-13T22:19:22.030Z,97279.01
2018-04-13T22:21:50.368Z,97282.78
2018-04-13T22:24:18.070Z,97280.52
2018-04-13T22:26:45.646Z,97277.48
2018-04-13T22:29:13.439Z,97279.20
2018-04-13T22:31:40.991Z,97286.98
2018-04-13T22:34:08.923Z,97294.50
2018-04-13T22:36:36.772Z,97290.38
2018-04-13T22:39:04.378Z,97295.06
2018-04-13T22:41:31.916Z,97291.78
2018-04-13T22:43:59.641Z,97297.59
2018-04-13T22:46:27.151Z,97293.52
2018-04-13T22:48:54.654Z,97292.88
2018-04-13T22:51:22.319Z,97298.34
2018-04-13T22:53:49.828Z,97307.54
2018-04-13T22:56:17.338Z,97307.84
2018-04-13T22:58:45.206Z,97307.29
2018-04-13T23:01:12.753Z,97307.77
2018-04-13T23:03:40.263Z,97311.48
2018-04-13T23:06:08.191Z,97314.39
2018-04-13T23:08:35.699Z,97309.55
2018-04-13T23:11:03.235Z,97313.33
2018-04-13T23:13:30.863Z,97310.86
2018-04-13T23:15:58.773Z,97313.20
2018-04-13T23:18:26.325Z,97322.45
2018-04-13T23:20:54.116Z,97321.81
2018-04-13T23:23:27.324Z,97326.45
2018-04-13T23:25:54.860Z,97325.44
2018-04-13T23:28:22.472Z,97322.95
2018-04-13T23:30:50.002Z,97326.00
2018-04-13T23:33:17.564Z,97330.94
2018-04-13T23:35:45.083Z,97330.50
2018-04-13T23:38:12.599Z,97335.05
2018-04-13T23:40:40.405Z,97334.97
2018-04-13T23:43:07.979Z,97337.22
2018-04-13T23:45:35.497Z,97340.23
2018-04-13T23:48:03.996Z,97340.67
2018-04-13T23:50:31.523Z,97344.06
2018-04-13T23:52:59.333Z,97334.30
2018-04-13T23:55:27.059Z,97336.45
2018-04-13T23:57:54.566Z,97344.80
